Webcam Richtung Westen

Webcam27

Webcam Richtung Norden

Webcam36

Webcam Richtung Osten

Webcam09

Wetter(Würzburg):
261530Z AUTO 30003G05KT 49KM RERA BKN100 OVC140 22/16 Q1017
		
Sun 26.09.2021, 15:30 UTC

Sichtweite bis zu 49 km
kürzlich Regen
Wind aus 300° mit 03kt, in Böen bis zu 05kt
unterbrochene Wolkendecke (5-7 Achtel) bei 10000 Fuß
bedeckter Himmel (8 Achtel) bei 14000 Fuß
Temperatur: 22 °C
Taupunkt: 16 °C
QNH: 1017 hPa
                         Heute        Morgen
                         26.09        27.09
--------------------------------------------
Beginn der Dämmerung     04:40        04:42
Sonnenaufgang            05:12        05:14
Sonnenuntergang          17:11        17:09
Ende der Dämmerung       17:43        17:41

Alle Zeiten in UTC